createdAt,value
2023-04-23T00:00:49.363Z,100217.88
2023-04-23T00:05:52.740Z,100215.72
2023-04-23T00:10:56.756Z,100208.16
2023-04-23T00:15:59.162Z,100199.75
2023-04-23T00:21:01.347Z,100188.03
2023-04-23T00:26:05.295Z,100194.78
2023-04-23T00:31:07.730Z,100187.72
2023-04-23T00:36:10.008Z,100185.94
2023-04-23T00:41:14.503Z,100190.31
2023-04-23T00:46:17.905Z,100188.66
2023-04-23T00:51:21.244Z,100197.16
2023-04-23T00:56:25.411Z,100193.41
2023-04-23T01:01:27.639Z,100188.56
2023-04-23T01:06:30.711Z,100187.25
2023-04-23T01:11:34.540Z,100192.91
2023-04-23T01:16:36.521Z,100187.84
2023-04-23T01:21:40.453Z,100189.09
2023-04-23T01:26:44.266Z,100196.38
2023-04-23T01:31:47.236Z,100174.84
2023-04-23T01:36:50.045Z,100179.88
2023-04-23T01:41:54.220Z,100173.56
2023-04-23T01:46:56.349Z,100162.25
2023-04-23T01:51:58.424Z,100157.13
2023-04-23T01:57:01.927Z,100155.91
2023-04-23T02:02:03.804Z,100157.53
2023-04-23T02:07:05.781Z,100163.75
2023-04-23T02:12:09.167Z,100160.16
2023-04-23T02:17:11.147Z,100160.97
2023-04-23T02:22:13.351Z,100158.31
2023-04-23T02:27:16.793Z,100170.53
2023-04-23T02:32:18.567Z,100164.63
2023-04-23T02:37:20.780Z,100174.31
2023-04-23T02:42:24.559Z,100166.41
2023-04-23T02:47:26.735Z,100168.22
2023-04-23T02:52:28.934Z,100167.31
2023-04-23T02:57:32.791Z,100162.84
2023-04-23T03:02:35.142Z,100157.63
2023-04-23T03:07:37.495Z,100156.06
2023-04-23T03:12:40.552Z,100150.63
2023-04-23T03:17:42.729Z,100150.03
2023-04-23T03:22:44.852Z,100148.38
2023-04-23T03:27:47.892Z,100152.84
2023-04-23T03:32:50.625Z,100144.88
2023-04-23T03:37:53.136Z,100150.19
2023-04-23T03:42:56.684Z,100145.81
2023-04-23T03:47:58.701Z,100133.50
2023-04-23T03:53:01.205Z,100142.06
2023-04-23T03:58:04.247Z,100143.81
2023-04-23T04:03:06.467Z,100140.19
2023-04-23T04:08:08.592Z,100137.44
2023-04-23T04:13:12.110Z,100130.28
2023-04-23T04:18:14.254Z,100141.84
2023-04-23T04:23:16.488Z,100145.13
2023-04-23T04:28:19.995Z,100152.41
2023-04-23T04:33:22.149Z,100150.53
2023-04-23T04:38:24.284Z,100150.44
2023-04-23T04:43:27.787Z,100155.69
2023-04-23T04:48:29.900Z,100138.72
2023-04-23T04:53:31.954Z,100150.94
2023-04-23T04:58:35.499Z,100157.09
2023-04-23T05:03:37.891Z,100161.31
2023-04-23T05:08:40.175Z,100165.63
2023-04-23T05:13:44.323Z,100164.47
2023-04-23T05:18:46.394Z,100166.16
2023-04-23T05:23:48.743Z,100166.13
2023-04-23T05:28:52.074Z,100173.78
2023-04-23T05:33:53.937Z,100168.13
2023-04-23T05:38:55.576Z,100166.75
2023-04-23T05:43:59.187Z,100169.84
2023-04-23T05:49:01.590Z,100181.06
2023-04-23T05:54:03.752Z,100179.94
2023-04-23T05:59:07.218Z,100176.16
2023-04-23T06:04:09.098Z,100176.38
2023-04-23T06:09:11.162Z,100181.38
2023-04-23T06:14:14.207Z,100183.59
2023-04-23T06:19:16.360Z,100177.19
2023-04-23T06:24:18.058Z,100192.88
2023-04-23T06:29:21.516Z,100202.31
2023-04-23T06:34:23.616Z,100211.38
2023-04-23T06:39:25.373Z,100204.28
2023-04-23T06:44:29.102Z,100212.50
2023-04-23T06:49:31.304Z,100205.63
2023-04-23T06:54:32.976Z,100204.91
2023-04-23T06:59:36.072Z,100201.50
2023-04-23T07:04:37.896Z,100203.88
2023-04-23T07:09:40.014Z,100199.38
2023-04-23T07:14:43.516Z,100206.34
2023-04-23T07:19:45.884Z,100208.88
2023-04-23T07:24:47.674Z,100210.81
2023-04-23T07:29:51.737Z,100208.09
2023-04-23T07:34:53.977Z,100212.44
2023-04-23T07:39:56.245Z,100218.75
2023-04-23T07:45:00.010Z,100210.84
2023-04-23T07:50:01.681Z,100217.53
2023-04-23T07:55:04.296Z,100207.44
2023-04-23T08:00:09.075Z,100217.31
2023-04-23T08:05:11.626Z,100217.44
2023-04-23T08:10:13.845Z,100222.94
2023-04-23T08:15:17.166Z,100221.66
2023-04-23T08:20:19.109Z,100225.06
2023-04-23T08:25:21.129Z,100215.72
2023-04-23T08:30:24.629Z,100219.88
2023-04-23T08:35:26.832Z,100223.19
2023-04-23T08:40:31.241Z,100224.81
2023-04-23T08:45:36.927Z,100232.81
2023-04-23T08:50:42.951Z,100239.31
2023-04-23T08:55:46.171Z,100249.59
2023-04-23T09:00:49.656Z,100243.69
2023-04-23T09:05:51.899Z,100259.19
2023-04-23T09:10:57.781Z,100261.81
2023-04-23T09:16:01.392Z,100269.16
2023-04-23T09:21:04.728Z,100275.09
2023-04-23T09:26:07.377Z,100292.44
2023-04-23T09:31:11.038Z,100292.50
2023-04-23T09:36:15.492Z,100292.00
2023-04-23T09:41:20.830Z,100288.75
2023-04-23T09:46:39.167Z,100286.00
2023-04-23T09:51:42.529Z,100302.75
2023-04-23T09:56:48.820Z,100303.28
2023-04-23T10:01:53.003Z,100302.53
2023-04-23T10:12:00.865Z,100299.50
2023-04-23T10:17:04.909Z,100300.22
2023-04-23T10:32:30.651Z,100307.13
2023-04-23T10:37:33.431Z,100300.78
2023-04-23T10:42:35.688Z,100309.31
2023-04-23T10:47:38.957Z,100322.41
2023-04-23T10:52:43.254Z,100323.00
2023-04-23T10:58:02.915Z,100321.00
2023-04-23T11:03:26.488Z,100325.38
2023-04-23T11:08:29.546Z,100323.63
2023-04-23T11:13:31.239Z,100329.75
2023-04-23T11:18:55.140Z,100324.34
2023-04-23T11:23:57.381Z,100314.78
2023-04-23T11:28:59.596Z,100308.13
2023-04-23T11:34:03.549Z,100306.25
2023-04-23T11:39:05.270Z,100312.19
2023-04-23T11:44:07.136Z,100301.94
2023-04-23T11:49:10.591Z,100299.88
2023-04-23T11:54:13.920Z,100304.34
2023-04-23T11:59:15.717Z,100308.06
2023-04-23T12:04:21.012Z,100309.81
2023-04-23T12:09:24.769Z,100316.78
2023-04-23T12:14:28.684Z,100318.66
2023-04-23T12:19:31.992Z,100313.50
2023-04-23T12:24:46.938Z,100327.13
2023-04-23T12:29:49.148Z,100315.56
2023-04-23T12:34:56.143Z,100299.50
2023-04-23T12:39:58.322Z,100293.91
2023-04-23T12:45:06.393Z,100292.72
2023-04-23T12:50:11.217Z,100289.94
2023-04-23T12:55:13.323Z,100279.75
2023-04-23T13:00:15.928Z,100278.59
2023-04-23T13:05:18.972Z,100289.28
2023-04-23T13:10:20.902Z,100273.84
2023-04-23T13:15:22.660Z,100282.31
2023-04-23T13:20:26.166Z,100270.78
2023-04-23T13:25:28.259Z,100271.75
2023-04-23T13:30:30.522Z,100266.22
2023-04-23T13:35:33.623Z,100247.66
2023-04-23T13:40:36.280Z,100251.75
2023-04-23T13:45:38.062Z,100245.00
2023-04-23T13:50:41.522Z,100244.31
2023-04-23T13:55:43.282Z,100236.69
2023-04-23T14:00:45.488Z,100224.72
2023-04-23T14:05:49.026Z,100219.69
2023-04-23T14:10:51.610Z,100212.03
2023-04-23T14:15:53.909Z,100211.31
2023-04-23T14:20:57.208Z,100215.75
2023-04-23T14:26:04.429Z,100202.19
2023-04-23T14:31:07.342Z,100198.25
2023-04-23T14:36:10.648Z,100195.09
2023-04-23T14:41:12.403Z,100195.09
2023-04-23T14:46:14.912Z,100181.03
2023-04-23T14:51:18.273Z,100175.66
2023-04-23T14:56:20.245Z,100158.25
2023-04-23T15:01:22.113Z,100159.69
2023-04-23T15:06:25.583Z,100155.94
2023-04-23T15:11:27.414Z,100140.41
2023-04-23T15:16:40.446Z,100140.09
2023-04-23T15:21:51.050Z,100144.63
2023-04-23T15:26:53.217Z,100138.28
2023-04-23T15:31:55.609Z,100143.94
2023-04-23T15:36:59.203Z,100134.41
2023-04-23T15:42:00.886Z,100138.25
2023-04-23T15:47:03.079Z,100137.88
2023-04-23T15:52:06.938Z,100137.78
2023-04-23T15:57:08.957Z,100128.34
2023-04-23T16:02:11.078Z,100125.69
2023-04-23T16:07:14.606Z,100117.28
2023-04-23T16:12:16.612Z,100110.25
2023-04-23T16:17:18.840Z,100107.44
2023-04-23T16:22:22.388Z,100108.56
2023-04-23T16:27:24.687Z,100094.78
2023-04-23T16:32:26.450Z,100098.03
2023-04-23T16:37:29.611Z,100084.63
2023-04-23T16:42:31.969Z,100085.44
2023-04-23T16:47:34.168Z,100082.19
2023-04-23T16:52:37.774Z,100073.66
2023-04-23T16:57:39.592Z,100074.63
2023-04-23T17:02:42.051Z,100070.75
2023-04-23T17:07:45.739Z,100067.06
2023-04-23T17:12:47.925Z,100074.19
2023-04-23T17:17:49.778Z,100057.03
2023-04-23T17:22:53.198Z,100062.25
2023-04-23T17:27:54.901Z,100047.00
2023-04-23T17:32:56.731Z,100045.34
2023-04-23T17:38:00.287Z,100043.50
2023-04-23T17:43:02.005Z,100037.34
2023-04-23T17:48:04.542Z,100035.56
2023-04-23T17:53:08.125Z,100037.66
2023-04-23T17:58:09.943Z,100036.88
2023-04-23T18:03:11.943Z,100033.28
2023-04-23T18:08:15.232Z,100044.69
2023-04-23T18:13:17.643Z,100038.50
2023-04-23T18:18:20.070Z,100039.97
2023-04-23T18:23:23.577Z,100044.03
2023-04-23T18:28:25.849Z,100051.00
2023-04-23T18:33:31.253Z,100053.34
2023-04-23T18:38:42.729Z,100061.28
2023-04-23T18:43:44.799Z,100057.47
2023-04-23T18:48:51.683Z,100050.72
2023-04-23T18:53:55.722Z,100059.19
2023-04-23T18:58:57.567Z,100050.88
2023-04-23T19:03:59.871Z,100054.28
2023-04-23T19:09:03.240Z,100065.75
2023-04-23T19:14:05.246Z,100046.47
2023-04-23T19:19:07.233Z,100045.00
2023-04-23T19:24:10.937Z,100040.25
2023-04-23T19:29:13.147Z,100042.75
2023-04-23T19:34:15.188Z,100042.56
2023-04-23T19:39:18.452Z,100034.22
2023-04-23T19:44:20.218Z,100039.81
2023-04-23T19:49:22.037Z,100026.19
2023-04-23T19:54:25.973Z,100032.75
2023-04-23T19:59:27.738Z,100034.84
2023-04-23T20:04:29.679Z,100028.13
2023-04-23T20:09:33.268Z,100021.31
2023-04-23T20:14:35.037Z,100022.50
2023-04-23T20:19:37.495Z,100025.03
2023-04-23T20:24:40.603Z,100011.69
2023-04-23T20:29:42.496Z,100011.63
2023-04-23T20:34:44.567Z,100008.97
2023-04-23T20:39:47.707Z,99991.47
2023-04-23T20:44:49.354Z,99992.25
2023-04-23T20:49:51.199Z,99981.34
2023-04-23T20:54:54.652Z,99966.84
2023-04-23T20:59:56.794Z,99953.94
2023-04-23T21:04:58.609Z,99950.28
2023-04-23T21:10:01.732Z,99947.59
2023-04-23T21:15:04.525Z,99936.88
2023-04-23T21:20:07.919Z,99937.75
2023-04-23T21:25:11.640Z,99924.53
2023-04-23T21:30:20.366Z,99924.81
2023-04-23T21:35:22.446Z,99920.63
2023-04-23T21:40:26.135Z,99918.13
2023-04-23T21:45:28.071Z,99916.56
2023-04-23T21:50:30.865Z,99913.34
2023-04-23T21:55:34.658Z,99911.94
2023-04-23T22:00:37.068Z,99914.16
2023-04-23T22:05:38.821Z,99919.81
2023-04-23T22:10:41.893Z,99928.00
2023-04-23T22:15:43.872Z,99925.56
2023-04-23T22:20:45.646Z,99930.72
2023-04-23T22:25:49.170Z,99926.81
2023-04-23T22:30:50.888Z,99925.56
2023-04-23T22:35:52.673Z,99902.84
2023-04-23T22:40:55.757Z,99907.03
2023-04-23T22:45:57.557Z,99898.16
2023-04-23T22:50:59.272Z,99889.28
2023-04-23T22:56:02.830Z,99876.09
2023-04-23T23:01:04.756Z,99865.66
2023-04-23T23:06:06.538Z,99865.94
2023-04-23T23:11:10.020Z,99854.88
2023-04-23T23:16:12.030Z,99852.56
2023-04-23T23:21:14.260Z,99844.69
2023-04-23T23:26:18.045Z,99843.22
2023-04-23T23:31:20.313Z,99835.56
2023-04-23T23:36:22.151Z,99823.38
2023-04-23T23:41:26.141Z,99816.66
2023-04-23T23:46:27.942Z,99811.34
2023-04-23T23:51:29.845Z,99806.09
2023-04-23T23:56:33.284Z,99807.69
